sensor_id;sensor_type;location;lat;lon;timestamp;temperature;humidity
25716;DHT22;13573;50.936;4.328;2023-05-10T00:02:02;13.40;99.90
25716;DHT22;13573;50.936;4.328;2023-05-10T00:04:28;12.20;99.90
25716;DHT22;13573;50.936;4.328;2023-05-10T00:06:55;13.40;99.90
25716;DHT22;13573;50.936;4.328;2023-05-10T00:09:22;13.80;99.90
25716;DHT22;13573;50.936;4.328;2023-05-10T00:11:48;13.80;99.90
25716;DHT22;13573;50.936;4.328;2023-05-10T00:14:15;13.60;99.90
25716;DHT22;13573;50.936;4.328;2023-05-10T00:16:42;13.50;99.90
25716;DHT22;13573;50.936;4.328;2023-05-10T00:19:08;13.50;99.90
25716;DHT22;13573;50.936;4.328;2023-05-10T00:21:35;13.50;99.90
25716;DHT22;13573;50.936;4.328;2023-05-10T00:24:02;13.60;99.90
25716;DHT22;13573;50.936;4.328;2023-05-10T00:26:28;13.20;99.90
25716;DHT22;13573;50.936;4.328;2023-05-10T00:28:55;13.50;99.90
25716;DHT22;13573;50.936;4.328;2023-05-10T00:31:22;13.40;99.90
25716;DHT22;13573;50.936;4.328;2023-05-10T00:33:49;13.40;99.90
25716;DHT22;13573;50.936;4.328;2023-05-10T00:36:16;13.40;99.90
25716;DHT22;13573;50.936;4.328;2023-05-10T00:38:42;13.40;99.90
25716;DHT22;13573;50.936;4.328;2023-05-10T00:41:09;13.50;99.90
25716;DHT22;13573;50.936;4.328;2023-05-10T00:43:35;13.00;99.90
25716;DHT22;13573;50.936;4.328;2023-05-10T00:46:02;13.40;99.90
25716;DHT22;13573;50.936;4.328;2023-05-10T00:48:29;13.60;99.90
25716;DHT22;13573;50.936;4.328;2023-05-10T00:50:56;13.30;99.90
25716;DHT22;13573;50.936;4.328;2023-05-10T00:53:23;13.40;99.90
25716;DHT22;13573;50.936;4.328;2023-05-10T00:55:50;13.00;99.90
25716;DHT22;13573;50.936;4.328;2023-05-10T00:58:17;12.90;99.90
25716;DHT22;13573;50.936;4.328;2023-05-10T01:00:45;12.20;99.90
25716;DHT22;13573;50.936;4.328;2023-05-10T01:03:13;13.30;99.90
25716;DHT22;13573;50.936;4.328;2023-05-10T01:05:40;13.30;99.90
25716;DHT22;13573;50.936;4.328;2023-05-10T01:08:07;13.30;99.90
25716;DHT22;13573;50.936;4.328;2023-05-10T01:10:34;13.40;99.90
25716;DHT22;13573;50.936;4.328;2023-05-10T01:13:02;13.50;99.90
25716;DHT22;13573;50.936;4.328;2023-05-10T01:15:29;13.60;99.90
25716;DHT22;13573;50.936;4.328;2023-05-10T01:17:57;13.60;99.90
25716;DHT22;13573;50.936;4.328;2023-05-10T01:20:24;12.30;99.90
25716;DHT22;13573;50.936;4.328;2023-05-10T01:23:10;13.70;99.90
25716;DHT22;13573;50.936;4.328;2023-05-10T01:26:07;13.50;99.90
25716;DHT22;13573;50.936;4.328;2023-05-10T01:28:39;13.70;99.90
25716;DHT22;13573;50.936;4.328;2023-05-10T01:33:59;13.60;99.90
25716;DHT22;13573;50.936;4.328;2023-05-10T01:37:07;12.40;99.90
25716;DHT22;13573;50.936;4.328;2023-05-10T01:39:23;13.60;99.90
25716;DHT22;13573;50.936;4.328;2023-05-10T01:42:01;14.30;99.90
25716;DHT22;13573;50.936;4.328;2023-05-10T01:44:33;13.60;99.90
25716;DHT22;13573;50.936;4.328;2023-05-10T01:47:06;13.60;99.90
25716;DHT22;13573;50.936;4.328;2023-05-10T01:49:36;13.50;99.90
25716;DHT22;13573;50.936;4.328;2023-05-10T01:52:07;13.60;99.90
25716;DHT22;13573;50.936;4.328;2023-05-10T01:54:35;13.60;99.90
25716;DHT22;13573;50.936;4.328;2023-05-10T01:57:06;13.10;99.90
25716;DHT22;13573;50.936;4.328;2023-05-10T01:59:35;13.30;99.90
25716;DHT22;13573;50.936;4.328;2023-05-10T02:02:06;12.30;99.90
25716;DHT22;13573;50.936;4.328;2023-05-10T02:04:35;13.40;99.90
25716;DHT22;13573;50.936;4.328;2023-05-10T02:07:05;13.50;99.90
25716;DHT22;13573;50.936;4.328;2023-05-10T02:09:33;12.20;99.90
25716;DHT22;13573;50.936;4.328;2023-05-10T02:12:02;13.60;99.90
25716;DHT22;13573;50.936;4.328;2023-05-10T02:14:34;13.40;99.90
25716;DHT22;13573;50.936;4.328;2023-05-10T02:17:04;13.30;99.90
25716;DHT22;13573;50.936;4.328;2023-05-10T02:19:32;13.40;99.90
25716;DHT22;13573;50.936;4.328;2023-05-10T02:22:00;12.10;99.90
25716;DHT22;13573;50.936;4.328;2023-05-10T02:24:29;13.30;99.90
25716;DHT22;13573;50.936;4.328;2023-05-10T02:26:56;13.00;99.90
25716;DHT22;13573;50.936;4.328;2023-05-10T02:29:25;13.30;99.90
25716;DHT22;13573;50.936;4.328;2023-05-10T02:31:54;13.40;99.90
25716;DHT22;13573;50.936;4.328;2023-05-10T02:34:23;13.30;99.90
25716;DHT22;13573;50.936;4.328;2023-05-10T02:36:51;12.10;99.90
25716;DHT22;13573;50.936;4.328;2023-05-10T02:39:19;13.50;99.90
25716;DHT22;13573;50.936;4.328;2023-05-10T02:41:48;13.30;99.90
25716;DHT22;13573;50.936;4.328;2023-05-10T02:44:18;13.10;99.90
25716;DHT22;13573;50.936;4.328;2023-05-10T02:46:46;14.20;99.90
25716;DHT22;13573;50.936;4.328;2023-05-10T02:49:14;13.30;99.90
25716;DHT22;13573;50.936;4.328;2023-05-10T02:51:46;13.60;99.90
25716;DHT22;13573;50.936;4.328;2023-05-10T02:54:17;13.40;99.90
25716;DHT22;13573;50.936;4.328;2023-05-10T02:56:51;13.60;99.90
25716;DHT22;13573;50.936;4.328;2023-05-10T02:59:16;13.30;99.90
25716;DHT22;13573;50.936;4.328;2023-05-10T03:01:43;13.60;99.90
25716;DHT22;13573;50.936;4.328;2023-05-10T03:04:10;13.50;99.90
25716;DHT22;13573;50.936;4.328;2023-05-10T03:06:37;13.30;99.90
25716;DHT22;13573;50.936;4.328;2023-05-10T03:09:04;13.50;99.90
25716;DHT22;13573;50.936;4.328;2023-05-10T03:11:41;13.20;99.90
25716;DHT22;13573;50.936;4.328;2023-05-10T03:14:16;13.30;99.90
25716;DHT22;13573;50.936;4.328;2023-05-10T03:16:46;12.80;99.90
25716;DHT22;13573;50.936;4.328;2023-05-10T03:19:22;12.90;99.90
25716;DHT22;13573;50.936;4.328;2023-05-10T03:21:52;12.90;99.90
25716;DHT22;13573;50.936;4.328;2023-05-10T03:24:22;13.30;99.90
25716;DHT22;13573;50.936;4.328;2023-05-10T03:26:50;11.70;99.90
25716;DHT22;13573;50.936;4.328;2023-05-10T03:29:19;13.40;99.90
25716;DHT22;13573;50.936;4.328;2023-05-10T03:31:46;13.60;99.90
25716;DHT22;13573;50.936;4.328;2023-05-10T03:34:13;13.50;99.90
25716;DHT22;13573;50.936;4.328;2023-05-10T03:36:39;13.40;99.90
25716;DHT22;13573;50.936;4.328;2023-05-10T03:39:06;13.90;99.90
25716;DHT22;13573;50.936;4.328;2023-05-10T03:41:33;13.80;99.90
25716;DHT22;13573;50.936;4.328;2023-05-10T03:43:59;13.40;99.90
25716;DHT22;13573;50.936;4.328;2023-05-10T03:46:26;13.80;99.90
25716;DHT22;13573;50.936;4.328;2023-05-10T03:48:53;13.50;99.90
25716;DHT22;13573;50.936;4.328;2023-05-10T03:51:20;14.00;99.90
25716;DHT22;13573;50.936;4.328;2023-05-10T03:53:47;13.50;99.90
25716;DHT22;13573;50.936;4.328;2023-05-10T03:56:13;13.70;99.90
25716;DHT22;13573;50.936;4.328;2023-05-10T03:58:40;13.70;99.90
25716;DHT22;13573;50.936;4.328;2023-05-10T04:01:07;13.80;99.90
25716;DHT22;13573;50.936;4.328;2023-05-10T04:03:33;13.90;99.90
25716;DHT22;13573;50.936;4.328;2023-05-10T04:06:02;13.80;99.90
25716;DHT22;13573;50.936;4.328;2023-05-10T04:08:28;13.60;99.90
25716;DHT22;13573;50.936;4.328;2023-05-10T04:13:30;13.70;99.90
25716;DHT22;13573;50.936;4.328;2023-05-10T04:15:56;13.50;99.90
25716;DHT22;13573;50.936;4.328;2023-05-10T04:18:23;13.80;99.90
25716;DHT22;13573;50.936;4.328;2023-05-10T04:20:49;13.60;99.90
25716;DHT22;13573;50.936;4.328;2023-05-10T04:23:16;13.40;99.90
25716;DHT22;13573;50.936;4.328;2023-05-10T04:25:43;12.40;99.90
25716;DHT22;13573;50.936;4.328;2023-05-10T04:28:09;13.40;99.90
25716;DHT22;13573;50.936;4.328;2023-05-10T04:30:36;13.70;99.90
25716;DHT22;13573;50.936;4.328;2023-05-10T04:33:03;13.70;99.90
25716;DHT22;13573;50.936;4.328;2023-05-10T04:35:30;13.80;99.90
25716;DHT22;13573;50.936;4.328;2023-05-10T04:37:56;14.10;99.90
25716;DHT22;13573;50.936;4.328;2023-05-10T04:40:23;14.50;99.90
25716;DHT22;13573;50.936;4.328;2023-05-10T04:42:50;12.60;99.90
25716;DHT22;13573;50.936;4.328;2023-05-10T04:45:16;13.60;99.90
25716;DHT22;13573;50.936;4.328;2023-05-10T04:47:43;14.00;99.90
25716;DHT22;13573;50.936;4.328;2023-05-10T04:50:09;13.70;99.90
25716;DHT22;13573;50.936;4.328;2023-05-10T04:52:36;14.30;99.90
25716;DHT22;13573;50.936;4.328;2023-05-10T04:55:03;13.80;99.90
25716;DHT22;13573;50.936;4.328;2023-05-10T04:57:30;12.60;99.90
25716;DHT22;13573;50.936;4.328;2023-05-10T04:59:57;13.90;99.90
25716;DHT22;13573;50.936;4.328;2023-05-10T05:02:23;14.10;99.90
25716;DHT22;13573;50.936;4.328;2023-05-10T05:04:50;14.10;99.90
25716;DHT22;13573;50.936;4.328;2023-05-10T05:07:16;14.20;99.90
25716;DHT22;13573;50.936;4.328;2023-05-10T05:09:43;12.90;99.90
25716;DHT22;13573;50.936;4.328;2023-05-10T05:12:10;14.20;99.90
25716;DHT22;13573;50.936;4.328;2023-05-10T05:14:39;14.20;99.90
25716;DHT22;13573;50.936;4.328;2023-05-10T05:17:05;14.00;99.90
25716;DHT22;13573;50.936;4.328;2023-05-10T05:19:32;14.20;99.90
25716;DHT22;13573;50.936;4.328;2023-05-10T05:21:59;14.40;99.90
25716;DHT22;13573;50.936;4.328;2023-05-10T05:24:25;13.80;99.90
25716;DHT22;13573;50.936;4.328;2023-05-10T05:26:52;14.20;99.90
25716;DHT22;13573;50.936;4.328;2023-05-10T05:29:18;14.40;99.90
25716;DHT22;13573;50.936;4.328;2023-05-10T05:31:45;14.40;99.90
25716;DHT22;13573;50.936;4.328;2023-05-10T05:34:12;14.40;99.90
25716;DHT22;13573;50.936;4.328;2023-05-10T05:36:39;14.10;99.90
25716;DHT22;13573;50.936;4.328;2023-05-10T05:39:05;14.10;99.90
25716;DHT22;13573;50.936;4.328;2023-05-10T05:41:32;14.10;99.90
25716;DHT22;13573;50.936;4.328;2023-05-10T05:43:58;14.40;99.90
25716;DHT22;13573;50.936;4.328;2023-05-10T05:46:25;14.40;99.90
25716;DHT22;13573;50.936;4.328;2023-05-10T05:48:52;14.00;99.90
25716;DHT22;13573;50.936;4.328;2023-05-10T05:51:18;14.40;99.90
25716;DHT22;13573;50.936;4.328;2023-05-10T05:53:45;14.80;99.90
25716;DHT22;13573;50.936;4.328;2023-05-10T05:56:11;14.80;99.90
25716;DHT22;13573;50.936;4.328;2023-05-10T05:58:38;14.70;99.90
25716;DHT22;13573;50.936;4.328;2023-05-10T06:01:05;14.90;99.90
25716;DHT22;13573;50.936;4.328;2023-05-10T06:03:31;14.50;99.90
25716;DHT22;13573;50.936;4.328;2023-05-10T06:05:59;14.90;99.90
25716;DHT22;13573;50.936;4.328;2023-05-10T06:08:25;15.30;99.90
25716;DHT22;13573;50.936;4.328;2023-05-10T06:10:52;15.00;99.90
25716;DHT22;13573;50.936;4.328;2023-05-10T06:13:18;15.40;99.90
25716;DHT22;13573;50.936;4.328;2023-05-10T06:16:05;15.60;99.90
25716;DHT22;13573;50.936;4.328;2023-05-10T06:18:41;15.70;99.90
25716;DHT22;13573;50.936;4.328;2023-05-10T06:21:09;15.80;99.90
25716;DHT22;13573;50.936;4.328;2023-05-10T06:23:35;16.10;99.90
25716;DHT22;13573;50.936;4.328;2023-05-10T06:26:02;15.60;99.90
25716;DHT22;13573;50.936;4.328;2023-05-10T06:28:29;15.20;99.90
25716;DHT22;13573;50.936;4.328;2023-05-10T06:30:57;14.10;99.90
25716;DHT22;13573;50.936;4.328;2023-05-10T06:33:24;15.50;99.90
25716;DHT22;13573;50.936;4.328;2023-05-10T06:35:50;15.20;99.90
25716;DHT22;13573;50.936;4.328;2023-05-10T06:38:17;13.50;99.90
25716;DHT22;13573;50.936;4.328;2023-05-10T06:40:44;14.70;99.90
25716;DHT22;13573;50.936;4.328;2023-05-10T06:43:10;14.60;99.90
25716;DHT22;13573;50.936;4.328;2023-05-10T06:45:37;15.30;99.90
25716;DHT22;13573;50.936;4.328;2023-05-10T06:48:07;14.20;99.90
25716;DHT22;13573;50.936;4.328;2023-05-10T06:50:35;13.40;99.90
25716;DHT22;13573;50.936;4.328;2023-05-10T06:53:02;14.40;99.90
25716;DHT22;13573;50.936;4.328;2023-05-10T06:55:31;14.60;99.90
25716;DHT22;13573;50.936;4.328;2023-05-10T06:57:58;14.50;99.90
25716;DHT22;13573;50.936;4.328;2023-05-10T07:00:24;13.60;99.90
25716;DHT22;13573;50.936;4.328;2023-05-10T07:02:52;13.80;99.90
25716;DHT22;13573;50.936;4.328;2023-05-10T07:05:19;14.50;99.90
25716;DHT22;13573;50.936;4.328;2023-05-10T07:07:46;14.60;99.90
25716;DHT22;13573;50.936;4.328;2023-05-10T07:10:13;13.30;99.90
25716;DHT22;13573;50.936;4.328;2023-05-10T07:12:41;14.50;99.90
25716;DHT22;13573;50.936;4.328;2023-05-10T07:15:09;14.20;99.90
25716;DHT22;13573;50.936;4.328;2023-05-10T07:17:36;14.20;99.90
25716;DHT22;13573;50.936;4.328;2023-05-10T07:20:04;14.00;99.90
25716;DHT22;13573;50.936;4.328;2023-05-10T07:22:30;13.90;99.90
25716;DHT22;13573;50.936;4.328;2023-05-10T07:24:57;14.10;99.90
25716;DHT22;13573;50.936;4.328;2023-05-10T07:27:25;13.50;99.90
25716;DHT22;13573;50.936;4.328;2023-05-10T07:29:53;14.00;99.90
25716;DHT22;13573;50.936;4.328;2023-05-10T07:32:20;13.70;99.90
25716;DHT22;13573;50.936;4.328;2023-05-10T07:34:47;13.70;99.90
25716;DHT22;13573;50.936;4.328;2023-05-10T07:37:15;14.10;99.90
25716;DHT22;13573;50.936;4.328;2023-05-10T07:39:43;14.10;99.90
25716;DHT22;13573;50.936;4.328;2023-05-10T07:42:10;14.20;99.90
25716;DHT22;13573;50.936;4.328;2023-05-10T07:44:37;14.30;99.90
25716;DHT22;13573;50.936;4.328;2023-05-10T07:47:04;14.30;99.90
25716;DHT22;13573;50.936;4.328;2023-05-10T07:49:34;14.30;99.90
25716;DHT22;13573;50.936;4.328;2023-05-10T07:52:03;14.60;99.90
25716;DHT22;13573;50.936;4.328;2023-05-10T07:54:30;14.80;99.90
25716;DHT22;13573;50.936;4.328;2023-05-10T07:56:57;14.80;99.90
25716;DHT22;13573;50.936;4.328;2023-05-10T07:59:26;15.10;99.90
25716;DHT22;13573;50.936;4.328;2023-05-10T08:01:53;13.80;99.90
25716;DHT22;13573;50.936;4.328;2023-05-10T08:04:20;13.80;99.90
25716;DHT22;13573;50.936;4.328;2023-05-10T08:06:48;13.60;99.90
25716;DHT22;13573;50.936;4.328;2023-05-10T08:09:15;14.40;99.90
25716;DHT22;13573;50.936;4.328;2023-05-10T08:11:43;14.50;99.90
25716;DHT22;13573;50.936;4.328;2023-05-10T08:14:10;14.40;99.90
25716;DHT22;13573;50.936;4.328;2023-05-10T08:16:36;14.40;99.90
25716;DHT22;13573;50.936;4.328;2023-05-10T08:19:04;15.30;99.90
25716;DHT22;13573;50.936;4.328;2023-05-10T08:21:31;15.90;99.90
25716;DHT22;13573;50.936;4.328;2023-05-10T08:23:58;16.20;99.90
25716;DHT22;13573;50.936;4.328;2023-05-10T08:26:25;16.60;99.90
25716;DHT22;13573;50.936;4.328;2023-05-10T08:28:51;16.20;99.90
25716;DHT22;13573;50.936;4.328;2023-05-10T08:31:18;15.50;99.90
25716;DHT22;13573;50.936;4.328;2023-05-10T08:33:46;15.10;99.90
25716;DHT22;13573;50.936;4.328;2023-05-10T08:36:12;15.40;99.90
25716;DHT22;13573;50.936;4.328;2023-05-10T08:38:44;15.80;99.90
25716;DHT22;13573;50.936;4.328;2023-05-10T08:41:16;16.00;99.90
25716;DHT22;13573;50.936;4.328;2023-05-10T08:43:44;16.20;99.90
25716;DHT22;13573;50.936;4.328;2023-05-10T08:46:17;16.40;99.90
25716;DHT22;13573;50.936;4.328;2023-05-10T08:48:46;16.60;99.90
25716;DHT22;13573;50.936;4.328;2023-05-10T08:51:17;16.90;99.90
25716;DHT22;13573;50.936;4.328;2023-05-10T08:53:44;17.00;99.90
25716;DHT22;13573;50.936;4.328;2023-05-10T08:56:12;16.20;99.90
25716;DHT22;13573;50.936;4.328;2023-05-10T08:58:42;17.10;99.90
25716;DHT22;13573;50.936;4.328;2023-05-10T09:01:09;15.50;99.90
25716;DHT22;13573;50.936;4.328;2023-05-10T09:03:38;16.00;99.90
25716;DHT22;13573;50.936;4.328;2023-05-10T09:06:06;16.20;99.90
25716;DHT22;13573;50.936;4.328;2023-05-10T09:08:36;16.30;99.90
25716;DHT22;13573;50.936;4.328;2023-05-10T09:11:08;16.60;99.90
25716;DHT22;13573;50.936;4.328;2023-05-10T09:13:40;16.90;99.90
25716;DHT22;13573;50.936;4.328;2023-05-10T09:16:08;17.10;99.90
25716;DHT22;13573;50.936;4.328;2023-05-10T09:18:35;16.20;99.90
25716;DHT22;13573;50.936;4.328;2023-05-10T09:21:04;16.40;99.90
25716;DHT22;13573;50.936;4.328;2023-05-10T09:23:31;16.40;99.90
25716;DHT22;13573;50.936;4.328;2023-05-10T09:26:05;16.20;99.90
25716;DHT22;13573;50.936;4.328;2023-05-10T09:28:49;16.60;99.90
25716;DHT22;13573;50.936;4.328;2023-05-10T09:31:04;16.10;99.90
25716;DHT22;13573;50.936;4.328;2023-05-10T09:33:43;16.60;99.90
25716;DHT22;13573;50.936;4.328;2023-05-10T09:36:07;16.20;99.90
25716;DHT22;13573;50.936;4.328;2023-05-10T09:38:45;16.50;99.90
25716;DHT22;13573;50.936;4.328;2023-05-10T09:41:20;16.20;99.90
25716;DHT22;13573;50.936;4.328;2023-05-10T09:43:48;16.30;99.90
25716;DHT22;13573;50.936;4.328;2023-05-10T09:46:16;16.40;99.90
25716;DHT22;13573;50.936;4.328;2023-05-10T09:48:45;16.50;99.90
25716;DHT22;13573;50.936;4.328;2023-05-10T09:51:19;16.60;99.90
25716;DHT22;13573;50.936;4.328;2023-05-10T09:53:47;16.80;99.90
25716;DHT22;13573;50.936;4.328;2023-05-10T10:01:29;16.80;99.90
25716;DHT22;13573;50.936;4.328;2023-05-10T10:03:57;16.60;99.90
25716;DHT22;13573;50.936;4.328;2023-05-10T10:06:24;15.90;99.90
25716;DHT22;13573;50.936;4.328;2023-05-10T10:08:53;17.20;99.90
25716;DHT22;13573;50.936;4.328;2023-05-10T10:11:21;16.90;99.90
25716;DHT22;13573;50.936;4.328;2023-05-10T10:13:48;15.50;99.90
25716;DHT22;13573;50.936;4.328;2023-05-10T10:16:15;16.90;99.90
25716;DHT22;13573;50.936;4.328;2023-05-10T10:18:42;15.60;99.90
25716;DHT22;13573;50.936;4.328;2023-05-10T10:21:09;16.10;99.90
25716;DHT22;13573;50.936;4.328;2023-05-10T10:23:36;15.90;99.90
25716;DHT22;13573;50.936;4.328;2023-05-10T10:26:04;16.20;99.90
25716;DHT22;13573;50.936;4.328;2023-05-10T10:28:38;15.50;99.90
25716;DHT22;13573;50.936;4.328;2023-05-10T10:34:16;14.40;99.90
25716;DHT22;13573;50.936;4.328;2023-05-10T10:36:46;15.50;99.90
25716;DHT22;13573;50.936;4.328;2023-05-10T10:39:14;15.60;99.90
25716;DHT22;13573;50.936;4.328;2023-05-10T10:41:52;15.30;99.90
25716;DHT22;13573;50.936;4.328;2023-05-10T10:44:34;15.50;99.90
25716;DHT22;13573;50.936;4.328;2023-05-10T10:47:22;15.30;99.90
25716;DHT22;13573;50.936;4.328;2023-05-10T10:50:05;15.60;99.90
25716;DHT22;13573;50.936;4.328;2023-05-10T10:52:37;15.50;99.90
25716;DHT22;13573;50.936;4.328;2023-05-10T10:55:21;15.20;99.90
25716;DHT22;13573;50.936;4.328;2023-05-10T10:57:53;15.00;99.90
25716;DHT22;13573;50.936;4.328;2023-05-10T11:00:25;15.10;99.90
25716;DHT22;13573;50.936;4.328;2023-05-10T11:02:56;15.80;99.90
25716;DHT22;13573;50.936;4.328;2023-05-10T11:05:47;14.40;99.90
25716;DHT22;13573;50.936;4.328;2023-05-10T11:11:06;15.70;99.90
25716;DHT22;13573;50.936;4.328;2023-05-10T11:13:39;15.60;99.90
25716;DHT22;13573;50.936;4.328;2023-05-10T11:16:13;15.90;99.90
25716;DHT22;13573;50.936;4.328;2023-05-10T11:18:50;16.30;99.90
25716;DHT22;13573;50.936;4.328;2023-05-10T11:21:09;16.40;99.90
25716;DHT22;13573;50.936;4.328;2023-05-10T11:23:56;16.40;99.90
25716;DHT22;13573;50.936;4.328;2023-05-10T11:26:26;15.70;99.90
25716;DHT22;13573;50.936;4.328;2023-05-10T11:28:54;16.10;99.90
25716;DHT22;13573;50.936;4.328;2023-05-10T11:31:22;15.30;99.90
25716;DHT22;13573;50.936;4.328;2023-05-10T11:33:51;15.90;99.90
25716;DHT22;13573;50.936;4.328;2023-05-10T11:36:20;15.70;99.90
25716;DHT22;13573;50.936;4.328;2023-05-10T11:38:47;16.00;99.90
25716;DHT22;13573;50.936;4.328;2023-05-10T11:41:15;16.00;99.90
25716;DHT22;13573;50.936;4.328;2023-05-10T11:43:46;16.40;99.90
25716;DHT22;13573;50.936;4.328;2023-05-10T11:46:18;15.80;99.90
25716;DHT22;13573;50.936;4.328;2023-05-10T11:48:54;15.70;99.90
25716;DHT22;13573;50.936;4.328;2023-05-10T11:51:22;15.20;99.90
25716;DHT22;13573;50.936;4.328;2023-05-10T11:53:51;15.10;99.90
25716;DHT22;13573;50.936;4.328;2023-05-10T11:56:18;15.20;99.90
25716;DHT22;13573;50.936;4.328;2023-05-10T11:58:52;15.10;99.90
25716;DHT22;13573;50.936;4.328;2023-05-10T12:01:20;15.40;99.90
25716;DHT22;13573;50.936;4.328;2023-05-10T12:03:48;15.50;99.90
25716;DHT22;13573;50.936;4.328;2023-05-10T12:06:17;15.70;99.90
25716;DHT22;13573;50.936;4.328;2023-05-10T12:08:46;15.60;99.90
25716;DHT22;13573;50.936;4.328;2023-05-10T12:11:13;15.50;99.90
25716;DHT22;13573;50.936;4.328;2023-05-10T12:13:43;15.70;99.90
25716;DHT22;13573;50.936;4.328;2023-05-10T12:16:17;15.80;99.90
25716;DHT22;13573;50.936;4.328;2023-05-10T12:18:49;15.60;99.90
25716;DHT22;13573;50.936;4.328;2023-05-10T12:21:17;15.80;99.90
25716;DHT22;13573;50.936;4.328;2023-05-10T12:23:46;15.80;99.90
25716;DHT22;13573;50.936;4.328;2023-05-10T12:26:13;15.90;99.90
25716;DHT22;13573;50.936;4.328;2023-05-10T12:28:39;15.90;99.90
25716;DHT22;13573;50.936;4.328;2023-05-10T12:31:07;15.50;99.90
25716;DHT22;13573;50.936;4.328;2023-05-10T12:33:40;15.50;99.90
25716;DHT22;13573;50.936;4.328;2023-05-10T12:36:10;15.90;99.90
25716;DHT22;13573;50.936;4.328;2023-05-10T12:38:39;15.20;99.90
25716;DHT22;13573;50.936;4.328;2023-05-10T12:41:10;14.10;99.90
25716;DHT22;13573;50.936;4.328;2023-05-10T12:43:37;14.30;99.90
25716;DHT22;13573;50.936;4.328;2023-05-10T12:46:06;15.80;99.90
25716;DHT22;13573;50.936;4.328;2023-05-10T12:48:33;15.70;99.90
25716;DHT22;13573;50.936;4.328;2023-05-10T12:51:01;15.80;99.90
25716;DHT22;13573;50.936;4.328;2023-05-10T12:53:32;15.90;99.90
25716;DHT22;13573;50.936;4.328;2023-05-10T12:55:59;15.70;99.90
25716;DHT22;13573;50.936;4.328;2023-05-10T12:58:26;15.50;99.90
25716;DHT22;13573;50.936;4.328;2023-05-10T13:00:52;15.90;99.90
25716;DHT22;13573;50.936;4.328;2023-05-10T13:03:19;16.00;99.90
25716;DHT22;13573;50.936;4.328;2023-05-10T13:05:46;16.20;99.90
25716;DHT22;13573;50.936;4.328;2023-05-10T13:08:13;16.20;99.90
25716;DHT22;13573;50.936;4.328;2023-05-10T13:10:39;15.00;99.90
25716;DHT22;13573;50.936;4.328;2023-05-10T13:13:06;16.50;99.90
25716;DHT22;13573;50.936;4.328;2023-05-10T13:15:34;16.60;99.90
25716;DHT22;13573;50.936;4.328;2023-05-10T13:18:01;16.70;99.90
25716;DHT22;13573;50.936;4.328;2023-05-10T13:20:27;16.80;99.90
25716;DHT22;13573;50.936;4.328;2023-05-10T13:22:55;16.90;99.90
25716;DHT22;13573;50.936;4.328;2023-05-10T13:25:21;17.00;99.90
25716;DHT22;13573;50.936;4.328;2023-05-10T13:27:48;16.70;99.90
25716;DHT22;13573;50.936;4.328;2023-05-10T13:30:18;17.00;99.90
25716;DHT22;13573;50.936;4.328;2023-05-10T13:32:46;17.10;99.90
25716;DHT22;13573;50.936;4.328;2023-05-10T13:35:13;17.30;99.90
25716;DHT22;13573;50.936;4.328;2023-05-10T13:37:39;17.40;99.90
25716;DHT22;13573;50.936;4.328;2023-05-10T13:40:06;15.70;99.90
25716;DHT22;13573;50.936;4.328;2023-05-10T13:42:34;17.40;99.90
25716;DHT22;13573;50.936;4.328;2023-05-10T13:45:01;17.40;99.90
25716;DHT22;13573;50.936;4.328;2023-05-10T13:47:30;17.50;99.90
25716;DHT22;13573;50.936;4.328;2023-05-10T13:49:57;17.90;99.90
25716;DHT22;13573;50.936;4.328;2023-05-10T13:52:25;16.40;99.90
25716;DHT22;13573;50.936;4.328;2023-05-10T13:54:54;15.70;99.90
25716;DHT22;13573;50.936;4.328;2023-05-10T13:57:22;17.90;99.90
25716;DHT22;13573;50.936;4.328;2023-05-10T13:59:50;18.20;99.90
25716;DHT22;13573;50.936;4.328;2023-05-10T14:02:17;18.20;99.90
25716;DHT22;13573;50.936;4.328;2023-05-10T14:04:47;18.10;99.90
25716;DHT22;13573;50.936;4.328;2023-05-10T14:07:14;18.30;99.90
25716;DHT22;13573;50.936;4.328;2023-05-10T14:09:40;19.20;99.90
25716;DHT22;13573;50.936;4.328;2023-05-10T14:12:08;17.40;99.90
25716;DHT22;13573;50.936;4.328;2023-05-10T14:14:34;18.70;99.90
25716;DHT22;13573;50.936;4.328;2023-05-10T14:17:01;18.60;99.90
25716;DHT22;13573;50.936;4.328;2023-05-10T14:19:27;18.20;99.90
25716;DHT22;13573;50.936;4.328;2023-05-10T14:21:56;18.60;99.90
25716;DHT22;13573;50.936;4.328;2023-05-10T14:24:23;18.70;99.90
25716;DHT22;13573;50.936;4.328;2023-05-10T14:26:50;18.00;99.90
25716;DHT22;13573;50.936;4.328;2023-05-10T14:29:19;18.40;99.90
25716;DHT22;13573;50.936;4.328;2023-05-10T14:31:46;18.10;99.90
25716;DHT22;13573;50.936;4.328;2023-05-10T14:34:13;17.80;99.90
25716;DHT22;13573;50.936;4.328;2023-05-10T14:36:40;18.00;99.90
25716;DHT22;13573;50.936;4.328;2023-05-10T14:39:08;17.70;99.90
25716;DHT22;13573;50.936;4.328;2023-05-10T14:41:36;17.90;99.90
25716;DHT22;13573;50.936;4.328;2023-05-10T14:44:03;17.60;99.90
25716;DHT22;13573;50.936;4.328;2023-05-10T14:46:30;17.40;99.90
25716;DHT22;13573;50.936;4.328;2023-05-10T14:48:56;17.10;99.90
25716;DHT22;13573;50.936;4.328;2023-05-10T14:51:23;17.40;99.90
25716;DHT22;13573;50.936;4.328;2023-05-10T14:53:50;17.10;99.90
25716;DHT22;13573;50.936;4.328;2023-05-10T14:56:16;17.00;99.90
25716;DHT22;13573;50.936;4.328;2023-05-10T14:58:43;17.10;99.90
25716;DHT22;13573;50.936;4.328;2023-05-10T15:01:11;17.30;99.90
25716;DHT22;13573;50.936;4.328;2023-05-10T15:03:37;17.10;99.90
25716;DHT22;13573;50.936;4.328;2023-05-10T15:06:04;16.60;99.90
25716;DHT22;13573;50.936;4.328;2023-05-10T15:08:31;15.80;99.90
25716;DHT22;13573;50.936;4.328;2023-05-10T15:10:58;15.90;99.90
25716;DHT22;13573;50.936;4.328;2023-05-10T15:13:25;15.80;99.90
25716;DHT22;13573;50.936;4.328;2023-05-10T15:15:54;15.60;99.90
25716;DHT22;13573;50.936;4.328;2023-05-10T15:18:21;15.80;99.90
25716;DHT22;13573;50.936;4.328;2023-05-10T15:20:48;15.60;99.90
25716;DHT22;13573;50.936;4.328;2023-05-10T15:23:14;15.80;99.90
25716;DHT22;13573;50.936;4.328;2023-05-10T15:25:41;15.80;99.90
25716;DHT22;13573;50.936;4.328;2023-05-10T15:28:08;15.70;99.90
25716;DHT22;13573;50.936;4.328;2023-05-10T15:30:34;15.60;99.90
25716;DHT22;13573;50.936;4.328;2023-05-10T15:33:01;15.60;99.90
25716;DHT22;13573;50.936;4.328;2023-05-10T15:35:28;15.70;99.90
25716;DHT22;13573;50.936;4.328;2023-05-10T15:37:54;15.70;99.90
25716;DHT22;13573;50.936;4.328;2023-05-10T15:40:22;16.00;99.90
25716;DHT22;13573;50.936;4.328;2023-05-10T15:42:49;16.20;99.90
25716;DHT22;13573;50.936;4.328;2023-05-10T15:45:16;16.40;99.90
25716;DHT22;13573;50.936;4.328;2023-05-10T15:47:42;16.40;99.90
25716;DHT22;13573;50.936;4.328;2023-05-10T15:50:11;16.40;99.90
25716;DHT22;13573;50.936;4.328;2023-05-10T15:52:38;16.80;99.90
25716;DHT22;13573;50.936;4.328;2023-05-10T15:55:05;16.70;99.90